sensor_id;sensor_type;location;lat;lon;timestamp;pressure;altitude;pressure_sealevel;temperature;humidity
72423;BME280;60413;55.658;37.498;2023-03-15T02:38:38;99419.56;;;3.72;100.00
72423;BME280;60413;55.658;37.498;2023-03-15T03:46:16;99399.94;;;2.82;100.00
72423;BME280;60413;55.658;37.498;2023-03-15T03:49:32;99393.94;;;2.66;100.00
72423;BME280;60413;55.658;37.498;2023-03-15T03:52:26;99355.88;;;2.50;100.00
72423;BME280;60413;55.658;37.498;2023-03-15T03:55:12;99422.28;;;2.91;100.00
72423;BME280;60413;55.658;37.498;2023-03-15T03:57:54;99393.56;;;2.69;100.00
72423;BME280;60413;55.658;37.498;2023-03-15T04:00:58;99396.44;;;2.74;100.00
72423;BME280;60413;55.658;37.498;2023-03-15T04:04:39;99438.09;;;3.04;100.00
72423;BME280;60413;55.658;37.498;2023-03-15T04:10:59;99380.38;;;2.86;100.00
72423;BME280;60413;55.658;37.498;2023-03-15T04:13:56;99398.06;;;3.27;100.00
72423;BME280;60413;55.658;37.498;2023-03-15T04:16:27;99394.00;;;3.39;100.00
72423;BME280;60413;55.658;37.498;2023-03-15T04:18:59;99389.63;;;3.25;100.00
72423;BME280;60413;55.658;37.498;2023-03-15T04:21:31;99382.19;;;3.22;100.00
72423;BME280;60413;55.658;37.498;2023-03-15T04:24:06;99407.41;;;3.36;100.00
72423;BME280;60413;55.658;37.498;2023-03-15T04:27:03;99392.97;;;3.19;100.00
72423;BME280;60413;55.658;37.498;2023-03-15T04:29:53;99440.66;;;3.56;100.00
72423;BME280;60413;55.658;37.498;2023-03-15T04:35:48;99458.94;;;3.77;100.00
72423;BME280;60413;55.658;37.498;2023-03-15T04:42:25;99436.41;;;4.13;100.00
72423;BME280;60413;55.658;37.498;2023-03-15T04:45:35;99408.00;;;3.75;100.00
72423;BME280;60413;55.658;37.498;2023-03-15T04:48:48;99404.50;;;3.67;100.00
72423;BME280;60413;55.658;37.498;2023-03-15T04:59:27;99420.78;;;3.69;100.00
72423;BME280;60413;55.658;37.498;2023-03-15T05:23:03;99443.50;;;4.82;100.00
72423;BME280;60413;55.658;37.498;2023-03-15T05:26:24;99383.72;;;5.89;100.00
72423;BME280;60413;55.658;37.498;2023-03-15T05:29:44;99450.88;;;7.47;100.00
72423;BME280;60413;55.658;37.498;2023-03-15T05:33:20;99436.88;;;8.24;100.00
72423;BME280;60413;55.658;37.498;2023-03-15T05:36:35;99427.41;;;7.59;100.00
72423;BME280;60413;55.658;37.498;2023-03-15T05:39:33;99506.38;;;7.44;100.00
72423;BME280;60413;55.658;37.498;2023-03-15T05:43:08;99591.34;;;8.27;100.00
72423;BME280;60413;55.658;37.498;2023-03-15T05:46:10;98351.91;;;7.77;100.00
72423;BME280;60413;55.658;37.498;2023-03-15T05:49:16;98389.53;;;8.56;100.00
72423;BME280;60413;55.658;37.498;2023-03-15T05:52:29;98402.69;;;8.78;100.00
72423;BME280;60413;55.658;37.498;2023-03-15T05:56:00;98393.34;;;9.09;100.00
72423;BME280;60413;55.658;37.498;2023-03-15T05:59:26;98371.22;;;8.61;100.00
72423;BME280;60413;55.658;37.498;2023-03-15T06:02:16;98377.34;;;8.89;100.00
72423;BME280;60413;55.658;37.498;2023-03-15T06:05:24;98368.31;;;9.07;100.00
72423;BME280;60413;55.658;37.498;2023-03-15T06:08:17;98396.97;;;9.90;100.00
72423;BME280;60413;55.658;37.498;2023-03-15T06:15:18;98398.50;;;10.18;100.00
72423;BME280;60413;55.658;37.498;2023-03-15T06:31:09;98383.19;;;8.74;100.00
72423;BME280;60413;55.658;37.498;2023-03-15T06:34:08;98391.03;;;8.69;100.00
72423;BME280;60413;55.658;37.498;2023-03-15T06:36:50;98383.81;;;8.59;100.00
72423;BME280;60413;55.658;37.498;2023-03-15T06:39:46;98325.69;;;8.16;100.00
72423;BME280;60413;55.658;37.498;2023-03-15T06:42:21;98351.63;;;8.13;100.00
72423;BME280;60413;55.658;37.498;2023-03-15T06:45:10;98365.88;;;8.00;100.00
72423;BME280;60413;55.658;37.498;2023-03-15T06:48:03;98337.38;;;8.43;100.00
72423;BME280;60413;55.658;37.498;2023-03-15T06:51:18;98396.84;;;9.42;100.00
72423;BME280;60413;55.658;37.498;2023-03-15T06:54:01;98406.19;;;9.88;100.00
72423;BME280;60413;55.658;37.498;2023-03-15T06:56:43;98351.38;;;9.79;100.00
72423;BME280;60413;55.658;37.498;2023-03-15T06:59:29;98370.50;;;9.37;100.00
72423;BME280;60413;55.658;37.498;2023-03-15T07:02:37;98428.97;;;8.78;100.00
72423;BME280;60413;55.658;37.498;2023-03-15T07:05:20;98347.88;;;8.43;100.00
72423;BME280;60413;55.658;37.498;2023-03-15T07:07:58;98404.94;;;9.36;100.00
72423;BME280;60413;55.658;37.498;2023-03-15T07:10:32;98348.72;;;9.74;100.00
72423;BME280;60413;55.658;37.498;2023-03-15T07:13:05;98360.66;;;9.55;100.00
72423;BME280;60413;55.658;37.498;2023-03-15T07:15:38;98409.53;;;9.01;100.00
72423;BME280;60413;55.658;37.498;2023-03-15T07:21:55;98360.28;;;8.30;100.00
72423;BME280;60413;55.658;37.498;2023-03-15T07:24:30;98370.84;;;8.97;100.00
72423;BME280;60413;55.658;37.498;2023-03-15T07:27:04;98363.34;;;9.05;100.00
72423;BME280;60413;55.658;37.498;2023-03-15T07:29:33;98354.16;;;9.08;100.00
72423;BME280;60413;55.658;37.498;2023-03-15T07:32:05;98398.44;;;9.21;100.00
72423;BME280;60413;55.658;37.498;2023-03-15T07:34:56;98443.72;;;10.37;100.00
72423;BME280;60413;55.658;37.498;2023-03-15T07:37:29;98383.25;;;10.20;100.00
72423;BME280;60413;55.658;37.498;2023-03-15T07:40:24;98447.53;;;11.15;100.00
72423;BME280;60413;55.658;37.498;2023-03-15T07:52:58;98386.91;;;8.78;100.00
72423;BME280;60413;55.658;37.498;2023-03-15T07:55:55;98383.28;;;8.23;100.00
72423;BME280;60413;55.658;37.498;2023-03-15T08:01:54;98404.19;;;7.84;100.00
72423;BME280;60413;55.658;37.498;2023-03-15T08:17:32;98391.06;;;8.18;100.00
72423;BME280;60413;55.658;37.498;2023-03-15T08:27:38;98441.16;;;8.33;100.00
72423;BME280;60413;55.658;37.498;2023-03-15T08:31:00;98447.09;;;8.24;100.00
72423;BME280;60413;55.658;37.498;2023-03-15T08:38:50;98416.28;;;8.53;100.00
72423;BME280;60413;55.658;37.498;2023-03-15T08:41:43;98371.44;;;7.70;100.00
72423;BME280;60413;55.658;37.498;2023-03-15T08:44:22;98425.09;;;8.30;100.00
72423;BME280;60413;55.658;37.498;2023-03-15T08:47:20;98461.06;;;8.12;100.00
72423;BME280;60413;55.658;37.498;2023-03-15T08:56:29;98437.81;;;7.41;100.00
72423;BME280;60413;55.658;37.498;2023-03-15T09:03:33;98371.63;;;6.65;100.00
72423;BME280;60413;55.658;37.498;2023-03-15T09:06:07;98374.78;;;6.79;100.00
72423;BME280;60413;55.658;37.498;2023-03-15T09:08:51;98383.13;;;7.04;100.00
72423;BME280;60413;55.658;37.498;2023-03-15T09:11:30;98371.91;;;6.92;100.00
72423;BME280;60413;55.658;37.498;2023-03-15T09:21:31;98362.59;;;6.73;100.00
72423;BME280;60413;55.658;37.498;2023-03-15T09:25:16;98405.09;;;7.15;100.00
72423;BME280;60413;55.658;37.498;2023-03-15T09:27:58;98366.09;;;6.90;100.00
72423;BME280;60413;55.658;37.498;2023-03-15T09:33:26;98375.00;;;6.77;100.00
72423;BME280;60413;55.658;37.498;2023-03-15T09:39:29;98429.53;;;7.33;100.00
72423;BME280;60413;55.658;37.498;2023-03-15T09:56:25;98429.44;;;7.56;100.00
72423;BME280;60413;55.658;37.498;2023-03-15T09:59:47;98425.94;;;7.51;100.00
72423;BME280;60413;55.658;37.498;2023-03-15T10:02:54;98344.16;;;7.08;100.00
72423;BME280;60413;55.658;37.498;2023-03-15T10:05:58;98371.50;;;7.12;100.00
72423;BME280;60413;55.658;37.498;2023-03-15T10:08:29;98367.19;;;7.06;100.00
72423;BME280;60413;55.658;37.498;2023-03-15T10:38:00;98372.03;;;8.45;100.00
72423;BME280;60413;55.658;37.498;2023-03-15T10:44:44;98414.53;;;8.59;100.00
72423;BME280;60413;55.658;37.498;2023-03-15T10:47:23;98379.41;;;8.09;100.00
72423;BME280;60413;55.658;37.498;2023-03-15T10:49:58;98347.66;;;7.93;100.00
72423;BME280;60413;55.658;37.498;2023-03-15T10:52:58;98363.41;;;7.93;100.00
72423;BME280;60413;55.658;37.498;2023-03-15T10:55:47;98387.03;;;8.10;100.00
72423;BME280;60413;55.658;37.498;2023-03-15T11:05:38;98384.50;;;8.15;100.00
72423;BME280;60413;55.658;37.498;2023-03-15T11:08:23;98356.13;;;7.95;100.00
72423;BME280;60413;55.658;37.498;2023-03-15T11:11:13;98383.06;;;8.08;100.00
72423;BME280;60413;55.658;37.498;2023-03-15T11:13:57;98420.59;;;8.25;100.00
72423;BME280;60413;55.658;37.498;2023-03-15T11:16:34;98414.78;;;8.23;100.00
72423;BME280;60413;55.658;37.498;2023-03-15T11:19:29;98389.09;;;8.08;100.00
72423;BME280;60413;55.658;37.498;2023-03-15T11:22:12;98410.16;;;8.30;100.00
72423;BME280;60413;55.658;37.498;2023-03-15T11:25:04;98384.19;;;8.12;100.00
72423;BME280;60413;55.658;37.498;2023-03-15T11:27:46;98411.66;;;8.26;100.00
72423;BME280;60413;55.658;37.498;2023-03-15T11:30:54;98376.06;;;7.96;100.00
72423;BME280;60413;55.658;37.498;2023-03-15T11:33:41;98435.59;;;8.30;100.00
72423;BME280;60413;55.658;37.498;2023-03-15T11:36:46;98360.63;;;8.00;100.00
72423;BME280;60413;55.658;37.498;2023-03-15T11:39:25;98365.38;;;8.20;100.00
72423;BME280;60413;55.658;37.498;2023-03-15T11:42:02;98397.34;;;8.51;100.00
72423;BME280;60413;55.658;37.498;2023-03-15T11:44:48;98431.75;;;8.71;100.00
72423;BME280;60413;55.658;37.498;2023-03-15T11:47:42;98396.38;;;8.40;100.00
72423;BME280;60413;55.658;37.498;2023-03-15T11:50:16;98373.66;;;8.29;100.00
72423;BME280;60413;55.658;37.498;2023-03-15T11:52:50;98363.81;;;8.19;100.00
72423;BME280;60413;55.658;37.498;2023-03-15T11:55:26;98347.13;;;7.91;100.00
72423;BME280;60413;55.658;37.498;2023-03-15T11:58:34;98367.63;;;7.60;100.00
72423;BME280;60413;55.658;37.498;2023-03-15T12:01:22;98321.97;;;7.28;100.00
72423;BME280;60413;55.658;37.498;2023-03-15T12:07:22;98405.63;;;7.29;100.00
72423;BME280;60413;55.658;37.498;2023-03-15T12:19:07;98403.69;;;7.24;100.00
72423;BME280;60413;55.658;37.498;2023-03-15T12:24:57;98385.25;;;7.19;100.00
72423;BME280;60413;55.658;37.498;2023-03-15T12:31:27;98355.44;;;7.37;100.00
72423;BME280;60413;55.658;37.498;2023-03-15T12:35:15;98431.47;;;7.83;100.00
72423;BME280;60413;55.658;37.498;2023-03-15T12:38:21;98373.13;;;7.76;100.00
72423;BME280;60413;55.658;37.498;2023-03-15T12:41:31;98370.72;;;7.57;100.00
72423;BME280;60413;55.658;37.498;2023-03-15T12:50:35;98422.00;;;7.65;100.00
72423;BME280;60413;55.658;37.498;2023-03-15T12:56:39;98439.16;;;7.73;100.00
72423;BME280;60413;55.658;37.498;2023-03-15T12:59:48;98442.69;;;7.78;100.00
72423;BME280;60413;55.658;37.498;2023-03-15T13:10:34;98460.78;;;7.80;100.00
72423;BME280;60413;55.658;37.498;2023-03-15T13:29:56;98359.72;;;7.15;100.00
72423;BME280;60413;55.658;37.498;2023-03-15T13:40:10;98417.06;;;7.40;100.00
72423;BME280;60413;55.658;37.498;2023-03-15T13:42:52;98346.13;;;7.01;100.00
72423;BME280;60413;55.658;37.498;2023-03-15T13:45:43;98357.84;;;7.10;100.00
72423;BME280;60413;55.658;37.498;2023-03-15T13:48:29;98397.66;;;7.24;100.00
72423;BME280;60413;55.658;37.498;2023-03-15T13:51:32;98397.97;;;7.28;100.00
72423;BME280;60413;55.658;37.498;2023-03-15T13:54:27;98370.44;;;7.13;100.00
72423;BME280;60413;55.658;37.498;2023-03-15T13:57:00;98358.03;;;6.92;100.00
72423;BME280;60413;55.658;37.498;2023-03-15T13:59:36;98372.19;;;7.08;100.00
72423;BME280;60413;55.658;37.498;2023-03-15T14:05:23;98368.88;;;7.12;100.00
72423;BME280;60413;55.658;37.498;2023-03-15T14:11:38;98353.00;;;6.90;100.00
72423;BME280;60413;55.658;37.498;2023-03-15T14:24:24;98369.19;;;6.87;100.00
72423;BME280;60413;55.658;37.498;2023-03-15T14:36:41;98394.25;;;6.83;100.00
72423;BME280;60413;55.658;37.498;2023-03-15T14:40:36;98393.03;;;6.74;100.00
72423;BME280;60413;55.658;37.498;2023-03-15T14:43:20;98358.69;;;6.35;100.00
72423;BME280;60413;55.658;37.498;2023-03-15T14:46:19;98400.19;;;6.55;100.00
72423;BME280;60413;55.658;37.498;2023-03-15T14:49:34;98354.94;;;6.19;100.00
72423;BME280;60413;55.658;37.498;2023-03-15T15:08:09;98335.28;;;5.38;100.00
72423;BME280;60413;55.658;37.498;2023-03-15T15:10:43;98349.56;;;5.36;100.00
72423;BME280;60413;55.658;37.498;2023-03-15T15:26:01;98365.50;;;5.16;100.00
72423;BME280;60413;55.658;37.498;2023-03-15T15:35:24;98388.19;;;5.04;100.00
72423;BME280;60413;55.658;37.498;2023-03-15T16:04:45;98393.88;;;4.20;100.00
72423;BME280;60413;55.658;37.498;2023-03-15T16:29:48;98446.34;;;4.05;100.00
72423;BME280;60413;55.658;37.498;2023-03-15T16:33:00;98374.31;;;3.53;100.00
72423;BME280;60413;55.658;37.498;2023-03-15T16:40:03;98429.16;;;3.65;100.00
72423;BME280;60413;55.658;37.498;2023-03-15T16:43:19;98413.28;;;3.42;100.00
72423;BME280;60413;55.658;37.498;2023-03-15T16:50:43;98479.47;;;3.73;100.00
72423;BME280;60413;55.658;37.498;2023-03-15T16:53:36;98393.78;;;3.19;100.00
72423;BME280;60413;55.658;37.498;2023-03-15T16:56:32;98466.84;;;3.69;100.00
72423;BME280;60413;55.658;37.498;2023-03-15T16:59:21;98449.03;;;3.66;100.00
72423;BME280;60413;55.658;37.498;2023-03-15T17:02:24;98461.03;;;3.67;100.00
72423;BME280;60413;55.658;37.498;2023-03-15T17:05:12;98463.88;;;3.66;100.00
72423;BME280;60413;55.658;37.498;2023-03-15T17:07:51;98391.13;;;3.26;100.00
72423;BME280;60413;55.658;37.498;2023-03-15T17:14:42;98435.72;;;3.43;100.00
72423;BME280;60413;55.658;37.498;2023-03-15T17:30:54;98411.97;;;3.26;100.00
72423;BME280;60413;55.658;37.498;2023-03-15T17:50:25;98395.19;;;3.15;100.00
72423;BME280;60413;55.658;37.498;2023-03-15T17:56:12;98483.31;;;3.63;100.00
72423;BME280;60413;55.658;37.498;2023-03-15T17:59:14;98453.97;;;3.43;100.00
72423;BME280;60413;55.658;37.498;2023-03-15T18:02:18;98413.56;;;3.27;100.00
72423;BME280;60413;55.658;37.498;2023-03-15T18:05:05;98394.63;;;3.06;100.00
72423;BME280;60413;55.658;37.498;2023-03-15T18:08:01;98442.09;;;3.47;100.00
72423;BME280;60413;55.658;37.498;2023-03-15T18:11:17;98403.97;;;3.14;100.00
72423;BME280;60413;55.658;37.498;2023-03-15T18:13:59;98401.19;;;3.15;100.00
72423;BME280;60413;55.658;37.498;2023-03-15T18:20:12;98391.63;;;3.09;100.00
72423;BME280;60413;55.658;37.498;2023-03-15T18:22:45;98377.22;;;3.00;100.00
72423;BME280;60413;55.658;37.498;2023-03-15T18:25:25;98473.75;;;3.50;100.00
72423;BME280;60413;55.658;37.498;2023-03-15T18:28:09;98440.94;;;3.43;100.00
72423;BME280;60413;55.658;37.498;2023-03-15T18:30:52;98391.38;;;3.18;100.00
72423;BME280;60413;55.658;37.498;2023-03-15T18:36:31;98427.97;;;3.29;100.00
72423;BME280;60413;55.658;37.498;2023-03-15T18:43:16;98442.72;;;3.42;100.00
72423;BME280;60413;55.658;37.498;2023-03-15T18:46:21;98406.59;;;3.14;100.00
72423;BME280;60413;55.658;37.498;2023-03-15T18:48:56;98400.38;;;3.15;100.00
72423;BME280;60413;55.658;37.498;2023-03-15T18:58:28;98374.22;;;3.03;100.00
72423;BME280;60413;55.658;37.498;2023-03-15T19:03:47;98405.97;;;3.19;100.00
72423;BME280;60413;55.658;37.498;2023-03-15T19:06:29;98420.31;;;3.41;100.00
72423;BME280;60413;55.658;37.498;2023-03-15T19:09:28;98412.34;;;3.29;100.00
72423;BME280;60413;55.658;37.498;2023-03-15T19:12:03;98464.09;;;3.58;100.00
72423;BME280;60413;55.658;37.498;2023-03-15T19:17:57;98438.19;;;3.69;100.00
72423;BME280;60413;55.658;37.498;2023-03-15T19:21:35;98441.78;;;3.68;100.00
72423;BME280;60413;55.658;37.498;2023-03-15T19:27:29;98415.25;;;3.46;100.00
72423;BME280;60413;55.658;37.498;2023-03-15T19:30:07;98420.72;;;3.38;100.00
72423;BME280;60413;55.658;37.498;2023-03-15T19:32:46;98438.88;;;3.51;100.00
72423;BME280;60413;55.658;37.498;2023-03-15T19:35:23;98393.34;;;3.22;100.00
72423;BME280;60413;55.658;37.498;2023-03-15T19:37:52;98377.41;;;3.05;100.00
72423;BME280;60413;55.658;37.498;2023-03-15T19:40:32;98382.91;;;3.22;100.00
72423;BME280;60413;55.658;37.498;2023-03-15T19:43:05;98402.47;;;3.38;100.00
72423;BME280;60413;55.658;37.498;2023-03-15T19:45:41;98400.88;;;3.37;100.00
72423;BME280;60413;55.658;37.498;2023-03-15T19:48:24;98452.25;;;3.62;100.00
72423;BME280;60413;55.658;37.498;2023-03-15T19:50:52;98392.13;;;3.25;100.00
72423;BME280;60413;55.658;37.498;2023-03-15T19:53:22;98404.28;;;3.38;100.00
72423;BME280;60413;55.658;37.498;2023-03-15T19:55:50;98397.88;;;3.33;100.00
72423;BME280;60413;55.658;37.498;2023-03-15T19:58:22;98367.34;;;3.15;100.00
72423;BME280;60413;55.658;37.498;2023-03-15T20:01:02;98362.97;;;3.09;100.00
72423;BME280;60413;55.658;37.498;2023-03-15T20:03:29;98390.28;;;3.32;100.00
72423;BME280;60413;55.658;37.498;2023-03-15T20:06:10;98418.06;;;3.45;100.00
72423;BME280;60413;55.658;37.498;2023-03-15T20:08:40;98369.34;;;3.13;100.00
72423;BME280;60413;55.658;37.498;2023-03-15T20:11:10;98376.34;;;3.20;100.00
72423;BME280;60413;55.658;37.498;2023-03-15T20:13:45;98426.44;;;3.53;100.00
72423;BME280;60413;55.658;37.498;2023-03-15T20:16:13;98368.13;;;3.23;100.00
72423;BME280;60413;55.658;37.498;2023-03-15T20:18:44;98429.22;;;3.59;100.00
72423;BME280;60413;55.658;37.498;2023-03-15T20:21:19;98398.50;;;3.29;100.00
72423;BME280;60413;55.658;37.498;2023-03-15T20:23:52;98383.78;;;3.16;100.00
72423;BME280;60413;55.658;37.498;2023-03-15T20:26:46;98424.91;;;3.46;100.00
72423;BME280;60413;55.658;37.498;2023-03-15T20:29:46;98427.53;;;3.39;100.00
72423;BME280;60413;55.658;37.498;2023-03-15T20:32:50;98366.56;;;3.08;100.00
72423;BME280;60413;55.658;37.498;2023-03-15T20:38:35;98408.72;;;3.30;100.00
72423;BME280;60413;55.658;37.498;2023-03-15T20:41:36;98417.41;;;3.18;100.00
72423;BME280;60413;55.658;37.498;2023-03-15T20:44:12;98413.94;;;3.30;100.00
72423;BME280;60413;55.658;37.498;2023-03-15T20:46:41;98350.50;;;2.73;100.00
72423;BME280;60413;55.658;37.498;2023-03-15T20:49:09;98364.84;;;2.89;100.00
72423;BME280;60413;55.658;37.498;2023-03-15T20:51:46;98355.88;;;2.85;100.00
72423;BME280;60413;55.658;37.498;2023-03-15T20:58:25;98260.69;;;2.12;100.00
72423;BME280;60413;55.658;37.498;2023-03-15T21:01:19;98247.28;;;2.08;100.00
72423;BME280;60413;55.658;37.498;2023-03-15T21:03:50;98246.53;;;2.01;100.00
72423;BME280;60413;55.658;37.498;2023-03-15T21:06:27;98256.50;;;2.11;100.00
72423;BME280;60413;55.658;37.498;2023-03-15T21:09:20;98280.44;;;2.33;100.00
72423;BME280;60413;55.658;37.498;2023-03-15T21:14:58;98267.88;;;2.10;100.00
72423;BME280;60413;55.658;37.498;2023-03-15T21:18:17;98304.03;;;2.31;100.00
72423;BME280;60413;55.658;37.498;2023-03-15T21:21:08;98227.97;;;1.84;100.00
72423;BME280;60413;55.658;37.498;2023-03-15T21:27:20;98314.81;;;2.35;100.00
72423;BME280;60413;55.658;37.498;2023-03-15T21:31:02;98250.53;;;1.97;100.00
72423;BME280;60413;55.658;37.498;2023-03-15T21:33:40;98247.91;;;1.97;100.00
72423;BME280;60413;55.658;37.498;2023-03-15T21:42:58;98269.88;;;2.21;100.00
72423;BME280;60413;55.658;37.498;2023-03-15T21:45:48;98298.59;;;2.39;100.00
72423;BME280;60413;55.658;37.498;2023-03-15T21:48:26;98302.19;;;2.38;100.00
72423;BME280;60413;55.658;37.498;2023-03-15T21:54:54;98234.34;;;1.95;100.00
72423;BME280;60413;55.658;37.498;2023-03-15T21:57:35;98293.59;;;2.38;100.00
72423;BME280;60413;55.658;37.498;2023-03-15T22:00:13;98222.78;;;1.84;100.00
72423;BME280;60413;55.658;37.498;2023-03-15T22:16:42;98297.53;;;2.54;100.00
